Time;durP1;ratioP1;P1;durP2;ratioP2;P2;SDS_P1;SDS_P2;PMS_P1;PMS_P2;Temp;Humidity;BMP_temperature;BMP_pressure;BME280_temperature;BME280_humidity;BME280_pressure;Samples;Min_cycle;Max_cycle;Signal;HPM_P1;HPM_P2
2021/01/19 00:00:34;;;;;;;4.88;1.70;;;;;;;-0.67;94.08;96987.53;4984517;28;20532;-50
2021/01/19 00:03:01;;;;;;;5.47;2.97;;;;;;;-0.69;94.45;96991.06;4989118;28;20054;-51
2021/01/19 00:05:28;;;;;;;5.40;2.42;;;;;;;-0.83;94.56;96989.88;4983303;28;20049;-51
2021/01/19 00:07:55;;;;;;;7.15;2.90;;;;;;;-0.74;94.25;96986.94;4982308;28;20054;-49
2021/01/19 00:10:23;;;;;;;4.82;2.70;;;;;;;-0.78;94.79;96981.94;4987359;28;20103;-50
2021/01/19 00:12:49;;;;;;;4.78;2.47;;;;;;;-0.84;95.00;96974.41;4987374;28;20058;-53
2021/01/19 00:15:16;;;;;;;8.27;3.08;;;;;;;-0.88;95.78;96972.88;4979292;28;20145;-48
2021/01/19 00:17:43;;;;;;;6.45;3.17;;;;;;;-0.96;96.87;96973.19;4986551;28;20425;-51
2021/01/19 00:20:11;;;;;;;5.93;3.05;;;;;;;-1.02;96.49;96966.50;4980686;28;20038;-48
2021/01/19 00:22:38;;;;;;;4.63;2.00;;;;;;;-0.99;96.76;96966.38;4986251;28;20113;-53
2021/01/19 00:25:06;;;;;;;6.13;2.97;;;;;;;-0.98;97.11;96965.47;4987775;28;20108;-52
2021/01/19 00:27:34;;;;;;;4.97;3.17;;;;;;;-0.88;96.66;96954.75;4982760;28;20058;-51
2021/01/19 00:30:01;;;;;;;4.93;3.25;;;;;;;-0.97;96.39;96959.38;4985571;28;20047;-47
2021/01/19 00:32:28;;;;;;;5.40;3.10;;;;;;;-0.93;95.84;96959.25;4985929;28;20042;-51
2021/01/19 00:34:55;;;;;;;2.85;1.63;;;;;;;-1.01;96.81;96962.16;4988439;28;20050;-54
2021/01/19 00:37:23;;;;;;;2.80;1.73;;;;;;;-1.01;96.83;96955.22;4980205;28;20074;-52
2021/01/19 00:39:50;;;;;;;5.35;3.10;;;;;;;-1.13;96.37;96953.16;4983917;28;20046;-51
2021/01/19 00:42:17;;;;;;;4.28;2.67;;;;;;;-1.24;97.74;96956.16;4991276;28;20064;-48
2021/01/19 00:44:45;;;;;;;4.55;2.22;;;;;;;-1.14;96.85;96954.03;4983387;28;20069;-53
2021/01/19 00:47:13;;;;;;;6.60;3.90;;;;;;;-1.17;97.65;96956.78;4985892;28;21072;-50
2021/01/19 00:49:40;;;;;;;5.93;3.75;;;;;;;-1.19;96.75;96953.38;4984093;28;20456;-47
2021/01/19 00:52:07;;;;;;;6.57;3.70;;;;;;;-1.15;97.02;96951.53;4975578;28;20833;-45
2021/01/19 00:54:35;;;;;;;6.10;3.90;;;;;;;-1.15;96.51;96947.19;4965817;28;20417;-54
2021/01/19 00:57:02;;;;;;;6.18;2.83;;;;;;;-1.07;97.03;96939.09;4987813;28;20034;-52
2021/01/19 00:59:30;;;;;;;6.50;3.50;;;;;;;-1.05;96.21;96934.72;4984611;28;20053;-51
2021/01/19 01:01:58;;;;;;;3.53;2.50;;;;;;;-1.10;96.10;96936.63;4983630;28;20082;-49
2021/01/19 01:04:25;;;;;;;6.90;3.45;;;;;;;-1.03;96.07;96941.53;4991122;28;20695;-51
2021/01/19 01:06:53;;;;;;;6.82;3.35;;;;;;;-1.06;96.66;96948.56;4981808;28;20098;-48
2021/01/19 01:09:21;;;;;;;8.55;3.80;;;;;;;-1.13;96.35;96949.72;4985919;28;20409;-46
2021/01/19 01:11:48;;;;;;;;;;;;;;;-1.12;95.83;96943.63;4987556;28;20053;-45
2021/01/19 01:14:15;;;;;;;;;;;;;;;-1.16;95.70;96945.50;4978916;28;20060;-49
2021/01/19 01:16:42;;;;;;;;;;;;;;;-1.15;96.01;96947.19;4982688;28;19968;-50
2021/01/19 01:19:09;;;;;;;;;;;;;;;-1.27;95.83;96947.69;4983974;28;19951;-47
2021/01/19 01:21:36;;;;;;;;;;;;;;;-1.30;96.50;96947.78;4987868;28;19930;-47
2021/01/19 01:24:04;;;;;;;;;;;;;;;-1.32;95.82;96947.84;4986695;28;19921;-47
2021/01/19 01:26:31;;;;;;;4.30;2.65;;;;;;;-1.25;96.67;96945.84;4950105;28;19922;-48
2021/01/19 01:28:58;;;;;;;9.30;3.40;;;;;;;-1.23;95.85;96942.31;4990562;28;20042;-50
2021/01/19 01:31:25;;;;;;;8.18;2.85;;;;;;;-1.22;96.56;96945.75;4982550;28;20046;-49
2021/01/19 01:33:53;;;;;;;6.00;2.60;;;;;;;-1.23;96.38;96942.31;4968284;28;20469;-54
2021/01/19 01:36:21;;;;;;;6.32;3.30;;;;;;;-1.37;96.97;96952.38;4983195;28;20089;-48
2021/01/19 01:38:48;;;;;;;5.65;3.38;;;;;;;-1.39;97.50;96956.75;4988257;28;20056;-48
2021/01/19 01:41:16;;;;;;;6.72;3.03;;;;;;;-1.34;97.42;96957.44;4985695;28;20042;-48
2021/01/19 01:43:44;;;;;;;6.05;3.40;;;;;;;-1.37;97.50;96960.13;4953123;28;20038;-49
2021/01/19 01:46:11;;;;;;;7.60;3.85;;;;;;;-1.49;98.25;96963.19;4978522;28;20057;-49
2021/01/19 01:48:39;;;;;;;9.00;3.17;;;;;;;-1.39;98.47;96955.91;4983389;28;20457;-46
2021/01/19 01:51:07;;;;;;;6.85;2.85;;;;;;;-1.49;98.85;96960.59;4987860;28;20050;-48
2021/01/19 01:53:35;;;;;;;6.50;3.33;;;;;;;-1.60;98.27;96952.41;4986858;28;20090;-52
2021/01/19 01:56:02;;;;;;;6.63;3.33;;;;;;;-1.83;98.57;96953.25;4986750;23;20472;-50
2021/01/19 01:58:30;;;;;;;5.18;3.35;;;;;;;-2.06;99.71;96948.94;5003027;28;20677;-47
2021/01/19 02:00:56;;;;;;;9.80;3.67;;;;;;;-2.13;100.00;96945.75;5007912;28;20041;-48
2021/01/19 02:03:23;;;;;;;5.72;3.55;;;;;;;-1.95;100.00;96945.06;5020922;28;20045;-46
2021/01/19 02:05:50;;;;;;;7.47;4.22;;;;;;;-1.86;100.00;96943.03;5023410;28;20073;-46
2021/01/19 02:08:25;;;;;;;6.18;3.35;;;;;;;-1.84;100.00;96942.06;5025245;28;20041;-47
2021/01/19 02:11:04;;;;;;;9.10;3.85;;;;;;;-1.92;100.00;96932.03;5020831;28;20077;-48
2021/01/19 02:13:41;;;;;;;7.75;4.07;;;;;;;-1.86;100.00;96927.50;5023575;28;20045;-48
2021/01/19 02:16:18;;;;;;;11.00;4.05;;;;;;;-1.92;100.00;96915.69;5016620;28;20096;-47
2021/01/19 02:18:52;;;;;;;8.45;4.30;;;;;;;-1.95;100.00;96908.88;5019176;28;20151;-48
2021/01/19 02:22:02;;;;;;;5.80;3.70;;;;;;;-2.10;100.00;96914.59;5022626;28;20512;-48
2021/01/19 02:24:34;;;;;;;8.27;4.13;;;;;;;-2.12;100.00;96907.81;5008026;28;20048;-47
2021/01/19 02:27:13;;;;;;;8.98;4.38;;;;;;;-2.23;100.00;96916.81;5023358;28;20048;-50
2021/01/19 02:29:55;;;;;;;9.30;4.60;;;;;;;-2.28;100.00;96913.53;5024308;28;20072;-51
2021/01/19 02:32:28;;;;;;;7.72;4.47;;;;;;;-2.29;100.00;96927.34;5014328;28;20056;-48
2021/01/19 02:35:01;;;;;;;10.55;4.97;;;;;;;-2.49;100.00;96916.88;5016660;28;20101;-50
2021/01/19 02:37:31;;;;;;;7.05;3.85;;;;;;;-2.81;100.00;96918.84;5023669;28;20061;-47
2021/01/19 02:40:03;;;;;;;8.90;4.63;;;;;;;-2.89;100.00;96919.09;5022217;28;20077;-47
2021/01/19 02:42:35;;;;;;;8.63;4.60;;;;;;;-2.99;100.00;96912.56;5018225;28;20076;-49
2021/01/19 02:45:05;;;;;;;8.25;4.78;;;;;;;-3.01;100.00;96916.09;5031893;28;20049;-47
2021/01/19 02:47:34;;;;;;;8.60;4.30;;;;;;;-3.03;100.00;96916.13;5029113;28;20464;-49
2021/01/19 02:50:01;;;;;;;9.43;4.60;;;;;;;-3.03;100.00;96910.94;5025875;28;20048;-47
2021/01/19 02:52:28;;;;;;;11.55;4.80;;;;;;;-3.21;100.00;96912.41;5024630;28;20385;-47
2021/01/19 02:54:56;;;;;;;8.45;4.57;;;;;;;-3.26;100.00;96911.72;5022651;28;20542;-52
2021/01/19 02:57:28;;;;;;;7.93;4.65;;;;;;;-3.39;100.00;96902.69;5022846;28;20045;-49
2021/01/19 03:00:04;;;;;;;7.78;4.18;;;;;;;-3.47;100.00;96907.25;5022306;28;20050;-47
2021/01/19 03:02:34;;;;;;;9.50;4.93;;;;;;;-3.49;100.00;96911.59;5025839;28;20072;-47
2021/01/19 03:05:03;;;;;;;10.00;4.82;;;;;;;-3.43;100.00;96914.00;5020871;28;20099;-47
2021/01/19 03:07:31;;;;;;;7.70;4.15;;;;;;;-3.43;100.00;96921.72;5025587;28;20049;-49
2021/01/19 03:09:59;;;;;;;9.85;4.65;;;;;;;-3.19;100.00;96914.94;5026360;28;20065;-49
2021/01/19 03:12:26;;;;;;;9.55;4.47;;;;;;;-2.94;100.00;96907.25;5019483;28;20037;-47
2021/01/19 03:14:54;;;;;;;8.38;5.10;;;;;;;-3.08;100.00;96902.53;5028602;28;20420;-52
2021/01/19 03:17:21;;;;;;;7.70;4.38;;;;;;;-3.21;100.00;96902.09;5025847;28;20136;-48
2021/01/19 03:19:49;;;;;;;11.02;5.05;;;;;;;-3.15;100.00;96896.75;5021490;28;20044;-47
2021/01/19 03:22:16;;;;;;;8.80;4.65;;;;;;;-3.25;100.00;96908.25;5025089;28;20053;-44
2021/01/19 03:24:43;;;;;;;10.35;5.13;;;;;;;-3.17;100.00;96903.66;5021783;28;20046;-48
2021/01/19 03:27:10;;;;;;;10.98;5.45;;;;;;;-3.28;100.00;96900.59;5016158;28;20077;-47
2021/01/19 03:29:37;;;;;;;10.38;5.13;;;;;;;-3.39;100.00;96897.53;5025163;28;20033;-50
2021/01/19 03:32:04;;;;;;;10.73;5.00;;;;;;;-3.27;100.00;96897.16;5018847;28;20072;-48
2021/01/19 03:34:33;;;;;;;9.30;5.00;;;;;;;-3.30;100.00;96884.34;5019343;28;20033;-49
2021/01/19 03:37:01;;;;;;;10.45;4.97;;;;;;;-3.45;100.00;96893.41;5020023;28;20061;-52
2021/01/19 03:39:28;;;;;;;12.13;5.72;;;;;;;-3.35;100.00;96894.81;5024364;28;20144;-48
2021/01/19 03:41:55;;;;;;;11.98;5.60;;;;;;;-2.97;100.00;96886.69;5024121;28;20397;-47
2021/01/19 03:44:22;;;;;;;10.88;5.35;;;;;;;-2.75;100.00;96874.75;5022993;28;20041;-47
2021/01/19 03:46:49;;;;;;;11.77;5.15;;;;;;;-2.68;100.00;96875.41;5032235;28;20140;-47
2021/01/19 03:49:16;;;;;;;11.23;4.90;;;;;;;-2.54;100.00;96873.16;5020143;28;20128;-48
2021/01/19 03:51:43;;;;;;;9.75;4.72;;;;;;;-2.61;100.00;96871.69;5022304;28;20412;-47
2021/01/19 03:54:11;;;;;;;12.45;4.93;;;;;;;-2.53;100.00;96867.09;5015133;28;20037;-47
2021/01/19 03:56:39;;;;;;;9.60;4.70;;;;;;;-2.45;100.00;96862.47;5021034;28;20046;-47
2021/01/19 03:59:06;;;;;;;7.28;3.40;;;;;;;-2.41;100.00;96863.22;5022568;28;20037;-47
2021/01/19 04:01:33;;;;;;;7.95;3.90;;;;;;;-2.28;100.00;96869.63;5023913;28;20053;-47
2021/01/19 04:04:00;;;;;;;9.75;4.50;;;;;;;-2.23;100.00;96865.16;5018739;28;20136;-48
2021/01/19 04:06:26;;;;;;;7.30;3.83;;;;;;;-2.12;100.00;96862.16;5020354;28;20824;-46
2021/01/19 04:08:54;;;;;;;12.80;5.85;;;;;;;-2.07;100.00;96857.66;5020004;28;20513;-47
2021/01/19 04:11:21;;;;;;;11.95;5.47;;;;;;;-1.92;100.00;96854.50;5018558;28;20037;-46
2021/01/19 04:13:48;;;;;;;8.35;4.72;;;;;;;-1.91;100.00;96857.91;5024083;28;20076;-46
2021/01/19 04:16:15;;;;;;;9.15;5.28;;;;;;;-1.97;100.00;96843.47;5023209;28;20451;-49
2021/01/19 04:18:42;;;;;;;11.40;5.40;;;;;;;-2.03;100.00;96843.72;5015560;28;20037;-54
2021/01/19 04:21:09;;;;;;;9.93;4.72;;;;;;;-2.07;100.00;96843.88;5021840;28;20076;-49
2021/01/19 04:23:37;;;;;;;9.18;4.80;;;;;;;-2.09;100.00;96841.38;5028236;28;20083;-49
2021/01/19 04:26:04;;;;;;;9.43;4.60;;;;;;;-2.14;100.00;96843.28;5022823;28;20049;-47
2021/01/19 04:28:31;;;;;;;7.63;4.47;;;;;;;-2.12;100.00;96844.06;5020861;28;20030;-50
2021/01/19 04:30:58;;;;;;;8.95;4.55;;;;;;;-2.13;100.00;96839.81;5022790;28;20045;-47
2021/01/19 04:33:25;;;;;;;9.30;4.53;;;;;;;-2.13;100.00;96831.19;5022142;28;20394;-49
2021/01/19 04:35:52;;;;;;;9.45;4.32;;;;;;;-2.22;100.00;96835.81;5019544;28;20132;-48
2021/01/19 04:38:19;;;;;;;7.75;4.47;;;;;;;-2.22;100.00;96833.25;5023119;28;20410;-47
2021/01/19 04:40:46;;;;;;;7.43;4.28;;;;;;;-2.27;100.00;96835.16;5021300;28;20073;-48
2021/01/19 04:43:16;;;;;;;9.35;4.80;;;;;;;-2.28;100.00;96830.88;5023749;28;20045;-46
2021/01/19 04:45:44;;;;;;;7.93;4.47;;;;;;;-2.35;100.00;96834.59;5021044;28;20042;-46
2021/01/19 04:48:11;;;;;;;7.88;4.30;;;;;;;-2.45;100.00;96834.09;5027680;28;20486;-48
2021/01/19 04:50:38;;;;;;;7.65;4.22;;;;;;;-2.59;100.00;96838.06;5021238;28;20041;-49
2021/01/19 04:53:06;;;;;;;7.65;4.15;;;;;;;-2.76;100.00;96831.75;5023769;28;20049;-48
2021/01/19 04:55:36;;;;;;;7.40;4.35;;;;;;;-2.96;100.00;96836.78;5026118;28;20129;-49
2021/01/19 04:58:06;;;;;;;6.25;3.97;;;;;;;-3.13;100.00;96833.06;5017294;28;20076;-48
2021/01/19 05:00:35;;;;;;;9.02;4.32;;;;;;;-3.26;100.00;96824.06;5023581;28;20045;-49
2021/01/19 05:03:21;;;;;;;8.23;3.90;;;;;;;-3.41;100.00;96819.38;5022769;28;20034;-53
2021/01/19 05:06:28;;;;;;;8.27;3.90;;;;;;;-3.37;100.00;96823.56;5017692;28;20054;-49
2021/01/19 05:08:56;;;;;;;9.13;4.50;;;;;;;-3.41;100.00;96819.38;5022277;28;20112;-46
2021/01/19 05:11:25;;;;;;;8.90;4.60;;;;;;;-3.47;100.00;96815.28;5020925;28;20069;-49
2021/01/19 05:13:57;;;;;;;6.95;4.07;;;;;;;-3.59;100.00;96798.47;5017463;28;20053;-51
2021/01/19 05:16:27;;;;;;;9.43;4.45;;;;;;;-3.59;100.00;96798.47;5023000;28;20080;-46
2021/01/19 05:18:55;;;;;;;9.57;4.60;;;;;;;-3.65;100.00;96793.53;5015892;28;20042;-48
2021/01/19 05:21:22;;;;;;;8.02;4.88;;;;;;;-3.68;100.00;96795.34;5018896;28;20041;-46
2021/01/19 05:23:49;;;;;;;9.10;4.25;;;;;;;-3.70;100.00;96790.25;5023179;28;20037;-47
2021/01/19 05:26:17;;;;;;;10.18;4.35;;;;;;;-3.72;100.00;96797.19;5023167;28;20046;-47
2021/01/19 05:28:46;;;;;;;9.50;4.60;;;;;;;-3.78;100.00;96796.56;5016959;28;20042;-48
2021/01/19 05:31:25;;;;;;;12.00;4.30;;;;;;;-3.90;100.00;96801.19;5023437;28;20041;-51
2021/01/19 05:34:01;;;;;;;7.13;4.40;;;;;;;-3.95;100.00;96792.78;5021768;28;20431;-48
2021/01/19 05:36:34;;;;;;;9.85;4.47;;;;;;;-3.99;100.00;96787.75;5020913;28;20151;-46
2021/01/19 05:39:03;;;;;;;7.32;4.38;;;;;;;-4.03;100.00;96781.03;5022952;28;20458;-49
2021/01/19 05:41:31;;;;;;;9.95;4.65;;;;;;;-3.96;100.00;96785.94;5026510;28;20037;-47
2021/01/19 05:44:11;;;;;;;7.65;4.60;;;;;;;-3.91;100.00;96776.34;5020021;28;20209;-47
2021/01/19 05:46:42;;;;;;;9.90;4.28;;;;;;;-4.00;100.00;96773.19;5022672;28;20059;-48
2021/01/19 05:49:15;;;;;;;10.07;6.65;;;;;;;-4.04;100.00;96771.63;5011858;28;20950;-49
2021/01/19 05:51:44;;;;;;;10.75;5.32;;;;;;;-4.03;100.00;96765.56;5018050;28;20038;-47
2021/01/19 05:54:21;;;;;;;9.52;4.75;;;;;;;-4.06;100.00;96764.78;5013196;28;20069;-47
2021/01/19 05:56:49;;;;;;;9.73;5.18;;;;;;;-4.05;100.00;96773.34;5024634;28;20500;-47
2021/01/19 05:59:34;;;;;;;9.35;5.35;;;;;;;-4.10;100.00;96767.50;5022461;28;20044;-47
2021/01/19 06:02:06;;;;;;;12.02;5.65;;;;;;;-4.10;100.00;96770.91;5019594;28;20073;-47
2021/01/19 06:04:40;;;;;;;10.80;5.55;;;;;;;-4.04;100.00;96763.91;5020252;28;20140;-46
2021/01/19 06:07:09;;;;;;;11.35;5.45;;;;;;;-3.92;100.00;96755.78;5021908;28;20041;-47
2021/01/19 06:09:37;;;;;;;9.40;4.95;;;;;;;-3.92;100.00;96768.66;5022180;28;20088;-48
2021/01/19 06:12:06;;;;;;;9.82;5.50;;;;;;;-3.92;100.00;96764.34;5028522;28;20138;-49
2021/01/19 06:14:34;;;;;;;12.55;5.60;;;;;;;-3.85;100.00;96763.25;5019042;28;20125;-48
2021/01/19 06:17:20;;;;;;;;;;;;;;;-3.88;100.00;96758.22;5028162;28;20119;-47
2021/01/19 06:19:48;;;;;;;;;;;;;;;-3.91;100.00;96755.72;5027284;28;20011;-48
2021/01/19 06:22:16;;;;;;;9.55;5.82;;;;;;;-3.88;100.00;96754.78;5023082;28;19920;-48
2021/01/19 06:24:44;;;;;;;9.45;5.18;;;;;;;-3.82;100.00;96749.41;5023636;28;20069;-50
2021/01/19 06:27:25;;;;;;;12.05;5.40;;;;;;;-3.80;100.00;96754.53;5023176;28;20562;-52
2021/01/19 06:30:08;;;;;;;10.40;5.28;;;;;;;-3.80;100.00;96747.66;5023661;28;20049;-46
2021/01/19 06:32:36;;;;;;;12.80;5.95;;;;;;;-3.91;100.00;96721.41;5014826;28;20046;-52
2021/01/19 06:35:12;;;;;;;13.63;6.70;;;;;;;-3.90;100.00;96723.06;5022138;28;20141;-48
2021/01/19 06:37:39;;;;;;;11.48;5.65;;;;;;;-3.87;100.00;96741.00;5022604;28;20052;-47
2021/01/19 06:40:08;;;;;;;11.65;6.28;;;;;;;-3.80;100.00;96741.66;5024782;28;20474;-47
2021/01/19 06:42:39;;;;;;;149.13;54.47;;;;;;;-3.71;100.00;96731.91;5029260;28;20046;-51
2021/01/19 06:45:07;;;;;;;25.73;12.18;;;;;;;-3.61;100.00;96725.53;5023553;28;20049;-51
2021/01/19 06:47:41;;;;;;;13.60;9.70;;;;;;;-3.59;100.00;96716.00;5027300;28;20034;-48
2021/01/19 06:50:10;;;;;;;53.35;29.77;;;;;;;-3.58;100.00;96719.41;5027636;28;20099;-48
2021/01/19 06:52:38;;;;;;;26.55;16.40;;;;;;;-3.59;100.00;96723.72;5022033;28;20522;-47
2021/01/19 06:55:20;;;;;;;9.35;5.35;;;;;;;-3.62;100.00;96720.41;5024504;28;20072;-51
2021/01/19 06:57:53;;;;;;;8.75;5.00;;;;;;;-3.64;100.00;96715.34;5018735;28;20073;-46
2021/01/19 07:00:21;;;;;;;7.63;5.05;;;;;;;-3.68;100.00;96712.88;5020259;28;20456;-51
2021/01/19 07:02:49;;;;;;;8.27;4.20;;;;;;;-3.75;100.00;96720.00;5019769;28;20060;-46
2021/01/19 07:05:18;;;;;;;7.18;4.50;;;;;;;-3.78;100.00;96714.97;5028707;28;20104;-45
2021/01/19 07:07:46;;;;;;;7.45;5.72;;;;;;;-3.80;100.00;96703.84;5022216;28;20415;-50
2021/01/19 07:10:15;;;;;;;7.90;4.38;;;;;;;-3.76;100.00;96705.44;5025601;28;20045;-53
2021/01/19 07:12:58;;;;;;;8.75;5.18;;;;;;;-3.69;100.00;96696.59;5026155;28;20046;-52
2021/01/19 07:16:00;;;;;;;7.20;4.55;;;;;;;-3.65;100.00;96705.06;5019862;28;20041;-50
2021/01/19 07:18:44;;;;;;;6.65;3.53;;;;;;;-3.67;100.00;96692.25;5009420;28;20061;-47
2021/01/19 07:21:12;;;;;;;7.18;3.60;;;;;;;-3.61;100.00;96686.88;5022552;28;20099;-50
2021/01/19 07:24:17;;;;;;;12.20;3.83;;;;;;;-3.49;100.00;96687.34;5021526;28;20392;-48
2021/01/19 07:26:46;;;;;;;7.90;3.90;;;;;;;-3.40;100.00;96677.56;5021734;28;20046;-48
2021/01/19 07:29:15;;;;;;;5.13;2.95;;;;;;;-3.47;100.00;96675.25;5030102;28;20520;-49
2021/01/19 07:31:42;;;;;;;6.37;3.53;;;;;;;-3.42;99.64;96665.59;5025650;28;20473;-50
2021/01/19 07:34:10;;;;;;;7.25;3.47;;;;;;;-3.26;98.64;96668.50;5022309;28;20910;-49
2021/01/19 07:36:38;;;;;;;5.03;3.38;;;;;;;-3.29;98.25;96666.03;5027225;28;20471;-47
2021/01/19 07:39:13;;;;;;;4.82;3.30;;;;;;;-3.12;96.96;96667.09;5024586;28;20828;-48
2021/01/19 07:41:42;;;;;;;6.65;3.20;;;;;;;-3.13;95.82;96659.41;5038207;28;20477;-48
2021/01/19 07:44:19;;;;;;;6.22;3.38;;;;;;;-3.07;95.81;96656.59;5023177;28;20050;-47
2021/01/19 07:47:12;;;;;;;6.07;3.13;;;;;;;-3.01;95.70;96647.78;5022428;28;20053;-50
2021/01/19 07:49:40;;;;;;;5.80;2.78;;;;;;;-2.91;94.58;96647.38;5024350;28;20033;-49
2021/01/19 07:52:13;;;;;;;5.53;2.92;;;;;;;-2.98;94.12;96653.66;5027777;28;20044;-51
2021/01/19 07:54:41;;;;;;;4.70;2.65;;;;;;;-3.01;94.21;96647.78;5026371;28;20042;-50
2021/01/19 07:57:14;;;;;;;5.65;2.78;;;;;;;-2.87;93.70;96651.53;5025086;28;20411;-49
2021/01/19 07:59:42;;;;;;;6.13;2.95;;;;;;;-2.58;91.66;96649.56;5027433;28;20053;-48
2021/01/19 08:02:22;;;;;;;4.78;2.63;;;;;;;-2.45;90.70;96642.16;5023980;28;20064;-47
2021/01/19 08:05:00;;;;;;;4.65;2.85;;;;;;;-2.34;89.41;96627.09;5016741;28;20041;-46
2021/01/19 08:07:38;;;;;;;5.82;2.78;;;;;;;-1.97;87.11;96623.81;5022551;28;20070;-48
2021/01/19 08:10:17;;;;;;;6.35;2.97;;;;;;;-2.10;85.39;96621.81;5020838;28;20077;-47
2021/01/19 08:12:47;;;;;;;3.47;2.40;;;;;;;-1.68;84.09;96622.59;5024468;28;20065;-48
2021/01/19 08:15:18;;;;;;;5.47;2.70;;;;;;;-1.53;83.17;96617.66;5025165;28;20045;-48
2021/01/19 08:17:49;;;;;;;5.82;2.40;;;;;;;-1.46;81.94;96617.34;5023789;28;20579;-49
2021/01/19 08:20:25;;;;;;;4.47;2.55;;;;;;;-1.28;80.57;96620.00;5022172;28;20064;-47
2021/01/19 08:22:55;;;;;;;4.35;2.22;;;;;;;-1.17;80.16;96622.13;5027960;28;20044;-47
2021/01/19 08:25:24;;;;;;;4.60;2.53;;;;;;;-1.39;81.06;96624.81;5019042;28;20069;-49
2021/01/19 08:27:51;;;;;;;4.88;2.50;;;;;;;-1.11;79.99;96614.09;5022879;28;20058;-48
2021/01/19 08:30:24;;;;;;;5.55;2.30;;;;;;;-1.16;79.90;96616.88;5019857;28;20132;-49
2021/01/19 08:33:12;;;;;;;3.60;2.45;;;;;;;-1.40;80.56;96610.22;5012363;28;20691;-49
2021/01/19 08:35:39;;;;;;;3.20;2.10;;;;;;;-0.92;79.48;96604.56;5024578;28;20041;-46
2021/01/19 08:38:07;;;;;;;4.18;2.05;;;;;;;-0.87;77.70;96607.78;5027062;28;20041;-47
2021/01/19 08:40:36;;;;;;;3.28;2.05;;;;;;;-0.77;77.37;96601.25;5021205;28;20475;-52
2021/01/19 08:43:21;;;;;;;28.67;8.68;;;;;;;-0.68;77.19;96597.41;5023939;28;20587;-49
2021/01/19 08:45:48;;;;;;;51.03;16.60;;;;;;;-0.94;78.58;96593.44;5022052;28;20041;-50
2021/01/19 08:48:15;;;;;;;16.75;8.73;;;;;;;-0.82;78.24;96587.72;5019916;28;20232;-53
2021/01/19 08:50:43;;;;;;;6.07;3.95;;;;;;;-0.93;78.44;96579.56;5021555;28;20164;-48
2021/01/19 08:53:12;;;;;;;5.45;3.15;;;;;;;-0.82;78.15;96587.72;5016239;28;20046;-50
2021/01/19 08:55:42;;;;;;;4.15;2.33;;;;;;;-0.76;77.45;96583.97;5019730;28;20040;-53
2021/01/19 08:58:18;;;;;;;6.40;4.82;;;;;;;-0.91;77.92;96585.53;5016508;28;20103;-48
2021/01/19 09:00:45;;;;;;;5.57;3.40;;;;;;;-0.80;77.19;96578.09;5025621;28;20057;-48
2021/01/19 09:03:14;;;;;;;4.60;3.47;;;;;;;-0.65;76.48;96573.13;5020226;28;20044;-48
2021/01/19 09:06:02;;;;;;;4.90;2.10;;;;;;;-0.45;75.60;96585.94;5023290;28;20048;-52
2021/01/19 09:08:31;;;;;;;3.88;2.30;;;;;;;-0.36;75.12;96589.84;5027357;28;20120;-51
2021/01/19 09:11:02;;;;;;;4.15;2.45;;;;;;;-0.21;74.09;96583.91;5024101;28;22767;-51
2021/01/19 09:13:44;;;;;;;4.07;2.60;;;;;;;0.02;73.71;96585.34;5021418;28;20463;-48
2021/01/19 09:16:12;;;;;;;6.35;2.67;;;;;;;0.41;71.64;96586.81;5017108;28;20049;-49
2021/01/19 09:18:39;;;;;;;;;;;;;;;0.38;71.98;96574.00;5021220;28;20077;-48
2021/01/19 09:21:09;;;;;;;;;;;;;;;0.41;70.74;96566.94;5024555;28;19928;-47
2021/01/19 09:23:38;;;;;;;;;;;;;;;0.41;70.99;96564.34;5023102;28;20011;-49
2021/01/19 09:26:05;;;;;;;;;;;;;;;0.54;70.09;96561.09;5021218;28;19925;-50
2021/01/19 09:28:34;;;;;;;;;;;;;;;1.13;68.43;96547.47;5023753;28;19921;-47
2021/01/19 09:31:11;;;;;;;;;;;;;;;1.31;67.17;96552.59;5023667;28;19975;-49
2021/01/19 09:33:38;;;;;;;;;;;;;;;1.34;67.01;96548.06;5016209;28;20015;-50
2021/01/19 09:36:06;;;;;;;;;;;;;;;1.10;68.02;96552.00;5025116;28;20011;-48
2021/01/19 09:38:34;;;;;;;;;;;;;;;0.81;67.86;96551.00;5023834;28;20012;-51
2021/01/19 09:41:02;;;;;;;;;;;;;;;0.46;69.27;96543.34;5019863;28;19928;-49
2021/01/19 09:43:29;;;;;;;;;;;;;;;0.43;70.09;96538.31;5023326;28;19928;-48
2021/01/19 09:45:57;;;;;;;;;;;;;;;0.13;70.82;96538.13;5030099;28;19931;-49
2021/01/19 09:48:24;;;;;;;;;;;;;;;0.69;69.75;96535.16;5026714;28;19929;-47
2021/01/19 09:50:51;;;;;;;;;;;;;;;0.87;68.90;96529.91;5026849;28;20016;-48
2021/01/19 09:53:24;;;;;;;;;;;;;;;0.87;68.58;96528.13;5027321;28;20024;-46
2021/01/19 09:55:51;;;;;;;;;;;;;;;0.77;68.51;96513.97;5024036;28;19983;-47
2021/01/19 09:58:22;;;;;;;;;;;;;;;1.33;67.23;96506.56;5026296;28;20011;-48
2021/01/19 10:00:49;;;;;;;;;;;;;;;1.56;66.97;96494.88;5025811;28;19921;-52
2021/01/19 10:03:17;;;;;;;;;;;;;;;1.45;66.42;96494.66;5020501;28;20371;-51
2021/01/19 10:05:44;;;;;;;;;;;;;;;1.28;65.92;96486.06;5025054;28;20028;-53
2021/01/19 10:08:11;;;;;;;;;;;;;;;1.16;66.97;96486.72;5025880;28;19960;-50
2021/01/19 10:10:40;;;;;;;5.40;2.15;;;;;;;0.62;68.54;96478.47;5032332;28;20346;-54
2021/01/19 10:13:07;;;;;;;4.03;1.98;;;;;;;0.67;68.60;96471.28;5021365;28;20092;-48
2021/01/19 10:15:36;;;;;;;3.58;1.92;;;;;;;1.07;67.09;96463.91;5014866;28;20103;-50
2021/01/19 10:18:22;;;;;;;5.38;2.88;;;;;;;1.73;65.44;96465.28;5017857;28;20392;-47
2021/01/19 10:20:50;;;;;;;4.10;2.65;;;;;;;1.93;63.67;96462.34;5023421;28;20524;-49
2021/01/19 10:23:35;;;;;;;4.90;3.20;;;;;;;1.67;63.95;96450.88;5026249;28;20570;-48
2021/01/19 10:26:08;;;;;;;4.10;2.28;;;;;;;1.54;64.53;96448.16;5020948;28;20846;-51
2021/01/19 10:28:40;;;;;;;3.10;2.10;;;;;;;1.41;64.83;96450.66;5024648;28;20058;-54
2021/01/19 10:31:27;;;;;;;4.43;2.40;;;;;;;1.87;63.77;96440.16;5019337;28;20512;-48
2021/01/19 10:34:01;;;;;;;3.65;2.15;;;;;;;1.65;63.81;96430.19;5027593;28;20050;-51
2021/01/19 10:36:29;;;;;;;3.92;1.90;;;;;;;2.07;63.27;96430.31;5022996;28;20053;-49
2021/01/19 10:39:04;;;;;;;3.65;1.85;;;;;;;1.97;63.19;96434.41;5029131;28;20099;-50
2021/01/19 10:41:31;;;;;;;3.83;2.40;;;;;;;2.30;62.42;96429.72;5031199;28;20098;-51
2021/01/19 10:44:04;;;;;;;3.50;2.10;;;;;;;2.42;61.81;96420.34;5021483;28;20046;-51
2021/01/19 10:46:32;;;;;;;4.50;2.00;;;;;;;2.32;62.09;96424.44;5026889;28;20048;-48
2021/01/19 10:49:06;;;;;;;3.38;1.92;;;;;;;2.72;60.48;96420.19;5021729;28;20096;-52
2021/01/19 10:51:34;;;;;;;3.47;2.10;;;;;;;2.99;59.26;96427.97;5023056;28;20389;-47
2021/01/19 10:54:10;;;;;;;4.65;2.00;;;;;;;2.75;59.39;96419.13;5029124;28;20045;-54
2021/01/19 10:56:38;;;;;;;3.70;1.83;;;;;;;2.68;59.78;96425.66;5026892;28;20068;-51
2021/01/19 10:59:05;;;;;;;4.57;1.85;;;;;;;3.36;58.49;96409.09;5020793;28;20083;-53
2021/01/19 11:01:35;;;;;;;3.63;2.10;;;;;;;3.01;58.39;96407.88;5025872;28;20041;-50
2021/01/19 11:04:04;;;;;;;2.72;1.83;;;;;;;2.96;59.49;96398.69;5027098;28;20048;-53
2021/01/19 11:06:35;;;;;;;4.97;1.90;;;;;;;3.41;58.72;96401.84;5020193;28;20120;-50
2021/01/19 11:09:20;;;;;;;3.22;2.13;;;;;;;3.98;56.98;96388.38;5020616;28;20041;-49
2021/01/19 11:11:47;;;;;;;3.20;1.90;;;;;;;3.30;57.82;96373.84;5020288;28;20138;-47
2021/01/19 11:14:14;;;;;;;3.80;2.10;;;;;;;3.39;57.86;96375.03;5024075;28;20041;-53
2021/01/19 11:16:42;;;;;;;3.22;1.85;;;;;;;3.62;57.95;96360.44;5025864;28;20516;-51
2021/01/19 11:19:12;;;;;;;3.78;1.98;;;;;;;3.83;57.27;96358.97;5030039;28;20405;-47
2021/01/19 11:21:40;;;;;;;7.53;2.05;;;;;;;3.49;56.52;96358.66;5020792;28;20091;-49
2021/01/19 11:24:09;;;;;;;4.05;1.90;;;;;;;4.22;56.21;96349.31;5030360;28;20041;-52
2021/01/19 11:26:37;;;;;;;4.50;2.30;;;;;;;3.78;56.94;96341.00;5024822;28;20088;-48
2021/01/19 11:29:04;;;;;;;3.60;2.08;;;;;;;4.15;55.82;96330.63;5021635;28;20057;-48
2021/01/19 11:31:32;;;;;;;8.63;2.30;;;;;;;4.97;54.61;96321.19;5018896;28;20136;-48
2021/01/19 11:34:09;;;;;;;5.30;2.05;;;;;;;3.81;55.92;96321.72;5026099;28;20638;-52
2021/01/19 11:37:25;;;;;;;5.10;2.17;;;;;;;4.31;55.99;96322.56;5020496;28;20034;-51
2021/01/19 11:39:52;;;;;;;5.32;2.05;;;;;;;4.53;56.54;96306.16;5022570;28;20508;-48
2021/01/19 11:42:19;;;;;;;5.63;2.13;;;;;;;4.70;54.69;96307.56;5026061;28;20038;-52
2021/01/19 11:44:47;;;;;;;3.33;2.10;;;;;;;5.00;54.21;96297.47;5024460;28;20041;-50
2021/01/19 11:47:14;;;;;;;3.28;1.85;;;;;;;4.67;54.04;96289.50;5024657;28;20075;-53
2021/01/19 11:49:48;;;;;;;5.45;1.98;;;;;;;4.48;55.42;96293.47;5026830;28;20053;-52
2021/01/19 11:52:17;;;;;;;3.78;1.90;;;;;;;5.10;54.52;96289.78;5020166;28;20073;-53